TimeHST,TemperatureF,Dew PointF,Humidity,Sea Level PressureIn,VisibilityMPH,Wind Direction,Wind SpeedMPH,Gust SpeedMPH,PrecipitationIn,Events,Conditions,WindDirDegrees,DateUTC
12:54 AM,77.0,73.9,90,30.16,10.0,ENE,13.8,23.0,N/A,,Scattered Clouds,60,2013-07-10 10:54:00
1:54 AM,75.9,73.0,91,30.14,10.0,ENE,15.0,20.7,N/A,,Scattered Clouds,60,2013-07-10 11:54:00
2:54 AM,75.0,71.1,87,30.13,10.0,ENE,12.7,-,N/A,,Clear,60,2013-07-10 12:54:00
3:54 AM,73.9,72.0,93,30.13,10.0,ENE,19.6,27.6,N/A,,Scattered Clouds,60,2013-07-10 13:54:00
4:54 AM,75.0,70.0,84,30.14,10.0,ENE,20.7,27.6,N/A,,Partly Cloudy,60,2013-07-10 14:54:00
5:54 AM,75.0,68.0,79,30.15,10.0,NE,15.0,-,N/A,,Scattered Clouds,50,2013-07-10 15:54:00
6:54 AM,75.0,72.0,90,30.16,10.0,NE,19.6,28.8,N/A,,Scattered Clouds,50,2013-07-10 16:54:00
7:54 AM,79.0,72.0,79,30.17,10.0,NE,18.4,25.3,N/A,,Partly Cloudy,50,2013-07-10 17:54:00
8:54 AM,82.0,72.0,71,30.17,10.0,ENE,18.4,27.6,N/A,,Partly Cloudy,60,2013-07-10 18:54:00
9:54 AM,84.9,69.1,59,30.17,10.0,ENE,21.9,28.8,N/A,,Scattered Clouds,60,2013-07-10 19:54:00
10:54 AM,87.1,70.0,57,30.16,10.0,ENE,19.6,29.9,N/A,,Partly Cloudy,60,2013-07-10 20:54:00
11:54 AM,84.9,71.1,63,30.15,10.0,ENE,19.6,33.4,N/A,,Scattered Clouds,70,2013-07-10 21:54:00
12:54 PM,87.1,66.9,51,30.13,10.0,East,21.9,36.8,0.00,,Partly Cloudy,80,2013-07-10 22:54:00
1:54 PM,87.1,70.0,57,30.12,10.0,ENE,20.7,32.2,N/A,,Partly Cloudy,70,2013-07-10 23:54:00
2:54 PM,86.0,70.0,59,30.12,10.0,ENE,16.1,32.2,0.00,,Partly Cloudy,70,2013-07-11 00:54:00
3:54 PM,86.0,70.0,59,30.11,10.0,ENE,21.9,32.2,0.00,,Partly Cloudy,60,2013-07-11 01:54:00
4:54 PM,82.9,69.1,63,30.10,10.0,NE,23.0,33.4,0.00,,Scattered Clouds,40,2013-07-11 02:54:00
5:54 PM,79.0,71.1,77,30.11,10.0,NE,25.3,35.7,N/A,,Scattered Clouds,50,2013-07-11 03:54:00
6:54 PM,75.9,69.1,79,30.13,10.0,ENE,13.8,23.0,N/A,,Partly Cloudy,60,2013-07-11 04:54:00
7:54 PM,75.9,71.1,85,30.15,10.0,NE,11.5,-,N/A,,Partly Cloudy,50,2013-07-11 05:54:00
8:54 PM,75.9,70.0,82,30.16,10.0,ENE,9.2,-,N/A,,Scattered Clouds,70,2013-07-11 06:54:00
9:54 PM,75.9,68.0,76,30.15,10.0,ENE,12.7,-,N/A,,Scattered Clouds,60,2013-07-11 07:54:00
10:54 PM,75.9,68.0,76,30.15,10.0,ENE,12.7,19.6,0.00,,Clear,60,2013-07-11 08:54:00
11:54 PM,75.0,71.1,87,30.14,10.0,NE,13.8,-,0.00,,Mostly Cloudy,50,2013-07-11 09:54:00